createdAt,value
2018-04-24T00:00:30.321Z,4.30
2018-04-24T00:02:58.277Z,4.20
2018-04-24T00:05:26.047Z,4.70
2018-04-24T00:07:53.503Z,4.60
2018-04-24T00:10:21.195Z,4.43
2018-04-24T00:12:49.407Z,4.10
2018-04-24T00:15:16.988Z,4.13
2018-04-24T00:17:44.440Z,4.77
2018-04-24T00:20:12.338Z,5.30
2018-04-24T00:22:40.555Z,20.77
2018-04-24T00:25:08.035Z,47.10
2018-04-24T00:27:35.487Z,7.50
2018-04-24T00:30:03.420Z,5.13
2018-04-24T00:32:30.894Z,5.00
2018-04-24T00:34:58.980Z,5.43
2018-04-24T00:37:26.437Z,5.20
2018-04-24T00:39:53.906Z,5.40
2018-04-24T00:42:21.788Z,5.60
2018-04-24T00:44:49.535Z,5.20
2018-04-24T00:47:17.098Z,5.60
2018-04-24T00:49:44.598Z,6.07
2018-04-24T00:52:12.827Z,6.00
2018-04-24T00:54:40.337Z,6.40
2018-04-24T00:57:07.765Z,6.43
2018-04-24T00:59:35.235Z,6.70
2018-04-24T01:02:03.519Z,6.00
2018-04-24T01:04:31.514Z,5.97
2018-04-24T01:06:58.961Z,5.70
2018-04-24T01:09:27.192Z,6.50
2018-04-24T01:11:54.636Z,5.50
2018-04-24T01:14:22.119Z,6.47
2018-04-24T01:16:50.839Z,5.70
2018-04-24T01:19:18.851Z,6.07
2018-04-24T01:21:46.309Z,5.67
2018-04-24T01:24:13.791Z,5.47
2018-04-24T01:26:42.089Z,4.77
2018-04-24T01:29:10.019Z,5.53
2018-04-24T01:31:37.455Z,5.00
2018-04-24T01:34:05.135Z,5.80
2018-04-24T01:36:33.086Z,5.50
2018-04-24T01:39:00.592Z,5.50
2018-04-24T01:41:28.412Z,5.50
2018-04-24T01:43:56.507Z,6.07
2018-04-24T01:46:23.980Z,6.80
2018-04-24T01:48:53.544Z,6.70
2018-04-24T01:51:21.023Z,6.17
2018-04-24T01:53:50.003Z,6.63
2018-04-24T01:56:17.547Z,6.50
2018-04-24T01:58:44.992Z,6.73
2018-04-24T02:01:12.485Z,7.30
2018-04-24T02:03:40.534Z,7.00
2018-04-24T03:56:07.879Z,3.40
2018-04-24T04:01:47.173Z,3.00
2018-04-24T04:07:09.918Z,2.53
2018-04-24T04:12:46.851Z,2.90
2018-04-24T04:15:22.359Z,3.20
2018-04-24T04:18:06.720Z,3.20
2018-04-24T04:29:36.168Z,3.77
2018-04-24T04:32:20.348Z,3.53
2018-04-24T04:35:07.356Z,4.30
2018-04-24T04:38:09.096Z,3.17
2018-04-24T04:40:50.344Z,3.80
2018-04-24T04:43:23.586Z,3.67
2018-04-24T04:46:22.823Z,4.20
2018-04-24T04:51:48.350Z,4.13
2018-04-24T04:57:10.354Z,3.67
2018-04-24T04:59:37.961Z,3.30
2018-04-24T05:02:05.849Z,4.10
2018-04-24T05:04:33.944Z,3.20
2018-04-24T05:07:01.482Z,3.50
2018-04-24T05:09:29.439Z,3.30
2018-04-24T05:11:57.231Z,3.90
2018-04-24T05:14:25.383Z,3.77
2018-04-24T05:16:52.901Z,3.70
2018-04-24T05:19:24.449Z,3.03
2018-04-24T05:21:54.655Z,3.40
2018-04-24T05:24:22.104Z,3.23
2018-04-24T05:26:50.374Z,3.90
2018-04-24T05:29:17.814Z,3.33
2018-04-24T05:31:45.296Z,3.27
2018-04-24T05:34:13.099Z,3.73
2018-04-24T05:36:40.865Z,3.70
2018-04-24T05:39:08.440Z,3.73
2018-04-24T05:41:36.140Z,3.57
2018-04-24T05:44:03.586Z,3.43
2018-04-24T05:46:31.547Z,4.50
2018-04-24T05:48:58.988Z,3.43
2018-04-24T05:51:26.431Z,3.67
2018-04-24T05:53:53.899Z,3.37
2018-04-24T05:56:21.900Z,4.17
2018-04-24T05:58:49.389Z,2.97
2018-04-24T06:01:17.600Z,4.10
2018-04-24T06:03:45.458Z,3.30
2018-04-24T06:06:12.916Z,3.83
2018-04-24T06:08:40.487Z,3.37
2018-04-24T06:11:08.072Z,3.40
2018-04-24T06:13:35.601Z,4.00
2018-04-24T06:16:03.591Z,3.50
2018-04-24T06:18:31.336Z,3.53
2018-04-24T06:20:58.820Z,3.20
2018-04-24T06:23:26.302Z,3.30
2018-04-24T06:25:54.506Z,3.90
2018-04-24T06:28:22.266Z,3.67
2018-04-24T06:30:49.658Z,3.70
2018-04-24T06:33:17.107Z,3.70
2018-04-24T06:35:45.088Z,4.13
2018-04-24T06:38:12.568Z,3.30
2018-04-24T06:40:40.451Z,3.70
2018-04-24T06:43:08.791Z,3.73
2018-04-24T06:45:36.290Z,3.40
2018-04-24T06:48:04.758Z,3.23
2018-04-24T06:50:32.982Z,3.50
2018-04-24T06:53:00.626Z,4.03
2018-04-24T06:55:28.083Z,3.70
2018-04-24T06:57:55.547Z,5.37
2018-04-24T07:00:23.032Z,3.77
2018-04-24T07:02:51.363Z,4.07
2018-04-24T07:05:19.191Z,3.37
2018-04-24T07:07:46.691Z,4.00
2018-04-24T07:10:14.605Z,4.17
2018-04-24T07:12:42.088Z,3.63
2018-04-24T07:15:09.520Z,4.53
2018-04-24T07:17:36.998Z,4.27
2018-04-24T07:20:06.187Z,3.73
2018-04-24T07:22:33.743Z,4.30
2018-04-24T07:25:02.700Z,4.33
2018-04-24T07:27:30.171Z,3.77
2018-04-24T07:29:57.613Z,4.23
2018-04-24T07:32:25.291Z,4.27
2018-04-24T07:34:53.489Z,4.27
2018-04-24T07:37:21.120Z,4.17
2018-04-24T07:39:48.616Z,4.70
2018-04-24T07:42:17.797Z,5.00
2018-04-24T07:44:45.264Z,4.10
2018-04-24T07:47:13.584Z,4.30
2018-04-24T07:49:41.153Z,3.90
2018-04-24T07:52:08.604Z,4.63
2018-04-24T07:54:36.178Z,4.70
2018-04-24T07:57:03.775Z,4.13
2018-04-24T07:59:32.131Z,4.47
2018-04-24T08:01:59.891Z,4.10
2018-04-24T08:04:27.584Z,4.50
2018-04-24T08:06:55.790Z,4.37
2018-04-24T08:09:23.395Z,4.87
2018-04-24T08:11:51.095Z,6.17
2018-04-24T08:14:18.588Z,4.40
2018-04-24T08:16:46.033Z,5.27
2018-04-24T08:19:14.338Z,5.17
2018-04-24T08:21:41.804Z,6.17
2018-04-24T08:24:09.274Z,5.67
2018-04-24T08:26:37.487Z,5.33
2018-04-24T08:29:05.446Z,5.37
2018-04-24T08:31:33.368Z,5.77
2018-04-24T08:34:01.149Z,6.23
2018-04-24T08:36:29.810Z,6.43
2018-04-24T08:38:57.341Z,5.77
2018-04-24T08:41:26.027Z,6.87
2018-04-24T08:43:53.520Z,8.40
2018-04-24T08:46:20.985Z,8.63
2018-04-24T08:48:48.450Z,8.30
2018-04-24T08:51:16.385Z,8.67
2018-04-24T08:53:44.225Z,8.40
2018-04-24T08:56:11.817Z,9.30
2018-04-24T08:58:39.276Z,8.43
2018-04-24T09:01:06.757Z,9.30
2018-04-24T09:03:34.767Z,11.20
2018-04-24T09:06:02.542Z,8.67
2018-04-24T09:08:30.092Z,9.30
2018-04-24T09:10:57.484Z,9.00
2018-04-24T09:13:24.940Z,10.97
2018-04-24T09:15:52.834Z,11.87
2018-04-24T09:18:21.870Z,11.70
2018-04-24T09:20:49.365Z,11.73
2018-04-24T09:23:16.826Z,12.37
2018-04-24T09:25:44.295Z,12.20
2018-04-24T09:28:12.960Z,10.90
2018-04-24T09:30:40.950Z,9.63
2018-04-24T09:33:09.703Z,10.77
2018-04-24T09:35:38.008Z,9.37
2018-04-24T09:38:06.215Z,9.70
2018-04-24T09:40:34.412Z,9.90
2018-04-24T09:43:02.471Z,10.43
2018-04-24T09:45:29.916Z,10.90
2018-04-24T09:47:57.379Z,10.20
2018-04-24T09:50:24.920Z,10.70
2018-04-24T09:52:52.384Z,11.33
2018-04-24T09:55:20.294Z,10.03
2018-04-24T09:57:47.734Z,10.67
2018-04-24T10:00:21.040Z,10.80
2018-04-24T10:02:48.670Z,10.87
2018-04-24T10:05:17.202Z,11.90
2018-04-24T10:07:44.734Z,13.63
2018-04-24T10:10:12.148Z,13.80
2018-04-24T10:12:39.601Z,12.50
2018-04-24T10:15:08.146Z,13.10
2018-04-24T10:17:35.606Z,13.90
2018-04-24T10:20:04.324Z,13.67
2018-04-24T10:22:32.562Z,13.63
2018-04-24T10:25:00.023Z,13.10
2018-04-24T10:27:27.500Z,14.67
2018-04-24T10:29:56.143Z,14.70
2018-04-24T10:32:24.175Z,14.47
2018-04-24T10:34:53.008Z,16.17
2018-04-24T10:37:20.551Z,15.50
2018-04-24T10:39:48.054Z,18.53
2018-04-24T10:42:16.624Z,18.33
2018-04-24T10:44:44.268Z,18.80
2018-04-24T10:47:11.734Z,19.60
2018-04-24T10:49:39.197Z,19.70
2018-04-24T10:52:06.662Z,20.53
2018-04-24T10:54:34.614Z,22.10
2018-04-24T10:57:02.086Z,20.03
2018-04-24T10:59:29.573Z,20.93
2018-04-24T11:01:57.134Z,20.80
2018-04-24T11:04:25.324Z,21.17
2018-04-24T11:06:52.785Z,21.53
2018-04-24T11:09:20.218Z,21.27
2018-04-24T11:11:47.921Z,21.07
2018-04-24T11:14:16.103Z,20.03
2018-04-24T11:16:44.798Z,18.97
2018-04-24T11:19:14.195Z,19.83
2018-04-24T11:21:41.671Z,20.50
2018-04-24T11:24:10.363Z,20.77
2018-04-24T11:26:39.366Z,19.83
2018-04-24T11:29:06.787Z,20.57
2018-04-24T11:31:35.775Z,21.87
2018-04-24T11:34:03.911Z,21.37
2018-04-24T11:36:31.936Z,22.83
2018-04-24T11:38:59.347Z,21.33
2018-04-24T11:41:27.082Z,20.60
2018-04-24T11:43:55.380Z,21.53
2018-04-24T11:46:22.910Z,22.27
2018-04-24T11:48:50.378Z,22.33
2018-04-24T11:51:17.827Z,22.10
2018-04-24T11:53:46.391Z,22.47
2018-04-24T11:56:14.613Z,23.53
2018-04-24T11:58:42.094Z,22.30
2018-04-24T12:01:09.539Z,22.10
2018-04-24T12:03:37.418Z,21.50
2018-04-24T12:06:04.944Z,20.90
2018-04-24T12:08:32.424Z,22.30
2018-04-24T12:11:01.062Z,22.77
2018-04-24T12:13:29.518Z,22.30
2018-04-24T12:15:58.495Z,25.67
2018-04-24T12:18:26.171Z,24.10
2018-04-24T12:20:53.633Z,26.57
2018-04-24T12:23:21.136Z,24.70
2018-04-24T12:25:49.026Z,22.73
2018-04-24T12:28:16.508Z,22.80
2018-04-24T12:30:45.506Z,19.63
2018-04-24T12:33:13.984Z,16.83
2018-04-24T12:35:42.033Z,17.13
2018-04-24T12:38:09.753Z,19.17
2018-04-24T12:40:37.672Z,19.37
2018-04-24T12:43:05.252Z,16.00
2018-04-24T12:45:33.461Z,17.90
2018-04-24T12:48:00.947Z,17.40
2018-04-24T12:50:28.425Z,15.70
2018-04-24T12:52:55.933Z,17.20
2018-04-24T12:55:23.937Z,16.10
2018-04-24T12:57:52.944Z,17.70
2018-04-24T13:00:20.800Z,15.00
2018-04-24T13:02:48.433Z,19.70
2018-04-24T13:05:16.458Z,28.90
2018-04-24T13:07:44.870Z,14.40
2018-04-24T13:10:12.314Z,14.23
2018-04-24T13:12:39.780Z,14.07
2018-04-24T13:15:07.385Z,13.17
2018-04-24T13:17:34.840Z,13.73
2018-04-24T13:20:03.133Z,13.53
2018-04-24T13:22:32.417Z,13.53
2018-04-24T13:25:00.815Z,12.07
2018-04-24T13:27:28.297Z,12.27
2018-04-24T13:29:56.503Z,12.33
2018-04-24T13:32:24.224Z,10.30
2018-04-24T13:34:54.721Z,9.67
2018-04-24T13:37:22.471Z,10.73
2018-04-24T13:39:50.961Z,9.40
2018-04-24T13:42:19.064Z,9.63
2018-04-24T13:44:47.283Z,9.20
2018-04-24T13:47:15.091Z,9.33
2018-04-24T13:49:42.540Z,9.30
2018-04-24T13:52:10.074Z,9.50
2018-04-24T13:54:37.810Z,9.70
2018-04-24T13:57:05.743Z,8.20
2018-04-24T13:59:33.962Z,10.20
2018-04-24T14:02:01.501Z,24.80
2018-04-24T14:04:29.276Z,15.80
2018-04-24T14:06:56.729Z,9.30
2018-04-24T14:09:24.256Z,10.23
2018-04-24T14:11:52.784Z,9.40
2018-04-24T14:14:20.246Z,9.40
2018-04-24T14:16:47.992Z,9.57
2018-04-24T14:19:16.010Z,9.50
2018-04-24T14:21:44.857Z,9.80
2018-04-24T14:24:12.272Z,11.17
2018-04-24T14:26:40.991Z,10.70
2018-04-24T14:29:08.448Z,10.60
2018-04-24T14:31:36.572Z,10.23
2018-04-24T14:34:04.819Z,10.60
2018-04-24T14:36:32.687Z,11.17
2018-04-24T14:39:00.241Z,10.43
2018-04-24T14:41:28.187Z,9.77
2018-04-24T14:43:55.681Z,10.17
2018-04-24T14:46:23.708Z,11.07
2018-04-24T14:48:51.190Z,9.60
2018-04-24T14:51:18.637Z,10.50
2018-04-24T14:53:46.455Z,11.10
2018-04-24T14:56:13.896Z,11.10
2018-04-24T14:58:41.371Z,10.87
2018-04-24T15:01:09.603Z,11.50
2018-04-24T15:03:37.378Z,11.73
2018-04-24T15:06:04.903Z,10.00
2018-04-24T15:08:33.148Z,9.73
2018-04-24T15:11:01.377Z,9.70
2018-04-24T15:13:29.073Z,10.33
2018-04-24T15:15:56.520Z,12.13
2018-04-24T15:18:24.475Z,10.93
2018-04-24T15:20:53.017Z,10.93
2018-04-24T15:23:20.816Z,11.20
2018-04-24T15:25:48.289Z,10.60
2018-04-24T15:28:15.981Z,11.07
2018-04-24T15:30:43.399Z,11.00
2018-04-24T15:33:10.875Z,11.93
2018-04-24T15:35:40.179Z,11.57
2018-04-24T15:38:10.265Z,11.40
2018-04-24T15:40:38.273Z,11.50
2018-04-24T15:43:07.027Z,11.70
2018-04-24T15:45:34.501Z,12.30
2018-04-24T15:48:02.388Z,12.60
2018-04-24T15:50:29.805Z,11.63
2018-04-24T15:52:57.243Z,10.77
2018-04-24T15:55:25.050Z,11.93
2018-04-24T15:57:53.499Z,11.43
2018-04-24T16:00:20.954Z,11.60
2018-04-24T16:02:48.431Z,10.60
2018-04-24T16:05:16.560Z,10.40
2018-04-24T16:07:44.037Z,10.40
2018-04-24T16:10:11.493Z,10.30
2018-04-24T16:12:39.363Z,10.60
2018-04-24T16:15:06.819Z,11.20
2018-04-24T16:17:34.271Z,10.73
2018-04-24T16:20:02.457Z,9.73
2018-04-24T16:22:29.992Z,10.50
2018-04-24T16:24:58.660Z,11.30
2018-04-24T16:27:26.109Z,11.63
2018-04-24T16:29:53.676Z,10.80
2018-04-24T16:32:21.280Z,11.17
2018-04-24T16:34:50.146Z,10.77
2018-04-24T16:37:18.050Z,9.90
2018-04-24T16:39:45.895Z,10.70
2018-04-24T16:42:13.780Z,10.90
2018-04-24T16:44:41.427Z,11.90
2018-04-24T16:47:08.887Z,11.70
2018-04-24T16:49:36.403Z,10.97
2018-04-24T16:52:03.957Z,11.70
2018-04-24T16:54:31.765Z,13.93
2018-04-24T16:56:59.240Z,14.07
2018-04-24T16:59:26.871Z,14.10
2018-04-24T17:01:54.342Z,24.93
2018-04-24T17:04:22.196Z,35.83
2018-04-24T17:06:49.879Z,11.67
2018-04-24T17:09:17.490Z,12.23
2018-04-24T17:11:45.004Z,11.30
2018-04-24T17:14:12.871Z,12.67
2018-04-24T17:16:41.331Z,12.00
2018-04-24T17:19:09.895Z,12.07
2018-04-24T17:21:37.688Z,11.57
2018-04-24T17:24:05.303Z,10.93
2018-04-24T17:26:32.780Z,11.70
2018-04-24T17:29:00.728Z,11.63
2018-04-24T17:31:28.173Z,11.80
2018-04-24T17:33:55.635Z,12.23
2018-04-24T17:36:23.508Z,12.13
2018-04-24T17:38:50.999Z,12.73
2018-04-24T17:41:19.689Z,11.87
2018-04-24T17:43:47.141Z,12.50
2018-04-24T17:46:14.606Z,11.97
2018-04-24T17:48:43.597Z,12.67
2018-04-24T17:51:11.983Z,11.30
2018-04-24T17:53:41.156Z,12.53
2018-04-24T17:56:08.609Z,12.90
2018-04-24T17:58:36.057Z,12.07
2018-04-24T18:01:03.555Z,12.30
2018-04-24T18:03:32.214Z,12.33
2018-04-24T18:06:00.465Z,12.63
2018-04-24T18:08:27.882Z,12.67
2018-04-24T18:10:56.015Z,12.80
2018-04-24T18:13:23.504Z,12.20
2018-04-24T18:15:52.161Z,12.40
2018-04-24T18:18:21.454Z,12.47
2018-04-24T18:20:48.953Z,12.47
2018-04-24T18:23:17.573Z,14.63
2018-04-24T18:25:45.045Z,12.20
2018-04-24T18:28:12.544Z,12.53
2018-04-24T18:30:40.881Z,12.50
2018-04-24T18:33:08.522Z,13.23
2018-04-24T18:35:39.117Z,13.33
2018-04-24T18:38:07.760Z,13.40
2018-04-24T18:40:35.811Z,13.93
2018-04-24T18:43:03.280Z,13.13
2018-04-24T18:45:30.786Z,11.70
2018-04-24T18:47:59.004Z,12.10
2018-04-24T18:50:26.481Z,11.77
2018-04-24T18:52:53.929Z,11.80
2018-04-24T18:55:21.877Z,11.70
2018-04-24T18:57:49.428Z,12.40
2018-04-24T19:00:17.441Z,12.30
2018-04-24T19:02:44.912Z,11.43
2018-04-24T19:05:12.656Z,11.47
2018-04-24T19:07:40.171Z,12.17
2018-04-24T19:10:07.662Z,10.93
2018-04-24T19:12:35.448Z,11.87
2018-04-24T19:15:04.020Z,12.17
2018-04-24T19:17:32.106Z,13.17
2018-04-24T19:19:59.911Z,14.30
2018-04-24T19:22:27.373Z,13.30
2018-04-24T19:25:00.497Z,14.10
2018-04-24T19:27:27.968Z,12.50
2018-04-24T19:29:55.461Z,12.80
2018-04-24T19:32:28.546Z,13.93
2018-04-24T19:34:57.526Z,14.73
2018-04-24T19:37:25.771Z,13.33
2018-04-24T19:39:59.914Z,14.63
2018-04-24T19:42:29.274Z,12.90
2018-04-24T19:44:56.740Z,14.60
2018-04-24T19:47:24.190Z,14.20
2018-04-24T19:49:58.329Z,14.30
2018-04-24T19:52:25.776Z,14.47
2018-04-24T19:55:00.416Z,14.63
2018-04-24T19:57:28.625Z,14.07
2018-04-24T19:59:56.343Z,14.97
2018-04-24T20:02:24.064Z,15.10
2018-04-24T20:04:52.998Z,15.20
2018-04-24T20:07:20.972Z,14.70
2018-04-24T20:09:49.305Z,15.33
2018-04-24T20:12:17.197Z,15.93
2018-04-24T20:14:44.639Z,15.87
2018-04-24T20:17:12.141Z,15.10
2018-04-24T20:19:40.656Z,17.30
2018-04-24T20:22:08.150Z,16.00
2018-04-24T20:24:35.624Z,16.90
2018-04-24T20:27:04.061Z,15.60
2018-04-24T20:29:31.537Z,15.50
2018-04-24T20:31:59.195Z,17.20
2018-04-24T20:34:27.174Z,16.50
2018-04-24T20:36:55.335Z,16.57
2018-04-24T20:39:22.801Z,16.60
2018-04-24T20:41:52.316Z,16.67
2018-04-24T20:44:19.781Z,17.40
2018-04-24T20:46:48.344Z,16.20
2018-04-24T20:49:15.815Z,16.50
2018-04-24T20:51:43.257Z,17.57
2018-04-24T20:54:11.871Z,17.27
2018-04-24T20:56:40.074Z,16.90
2018-04-24T20:59:07.549Z,16.43
2018-04-24T21:01:35.257Z,17.10
2018-04-24T21:04:03.816Z,16.80
2018-04-24T21:06:31.270Z,16.87
2018-04-24T21:08:58.933Z,17.63
2018-04-24T21:11:28.231Z,16.10
2018-04-24T21:13:55.880Z,18.23
2018-04-24T21:16:23.340Z,15.80
2018-04-24T21:18:51.070Z,16.90
2018-04-24T21:21:18.811Z,17.80
2018-04-24T21:23:46.267Z,15.30
2018-04-24T21:26:13.860Z,16.77
2018-04-24T21:28:41.559Z,15.23
2018-04-24T21:31:10.517Z,15.13
2018-04-24T21:33:38.436Z,16.97
2018-04-24T21:42:55.837Z,15.10
2018-04-24T21:45:23.282Z,17.00
2018-04-24T21:47:50.735Z,15.67
2018-04-24T21:50:18.218Z,15.47
2018-04-24T21:52:45.682Z,15.83
2018-04-24T21:55:14.280Z,17.13
2018-04-24T21:57:41.762Z,15.07
2018-04-24T22:00:09.203Z,14.90
2018-04-24T22:02:36.985Z,15.60
2018-04-24T22:05:05.679Z,14.60
2018-04-24T22:07:34.889Z,14.70
2018-04-24T22:10:03.638Z,17.27
2018-04-24T22:12:31.157Z,14.80
2018-04-24T22:14:58.604Z,13.10
2018-04-24T22:17:26.094Z,14.40
2018-04-24T22:19:54.394Z,14.57
2018-04-24T22:22:22.618Z,14.90
2018-04-24T22:24:50.120Z,14.00
2018-04-24T22:27:17.639Z,13.43
2018-04-24T22:29:45.071Z,12.90
2018-04-24T22:32:14.017Z,39.97
2018-04-24T22:34:43.213Z,22.10
2018-04-24T22:37:11.779Z,32.53
2018-04-24T22:39:39.356Z,45.83
2018-04-24T22:42:07.327Z,22.63
2018-04-24T22:44:34.944Z,11.97
2018-04-24T22:47:04.180Z,12.60
2018-04-24T22:49:31.639Z,13.50
2018-04-24T22:51:59.847Z,13.13
2018-04-24T22:54:28.509Z,13.03
2018-04-24T22:56:56.720Z,13.73
2018-04-24T22:59:24.206Z,12.97
2018-04-24T23:01:51.661Z,14.40
2018-04-24T23:04:19.591Z,12.87
2018-04-24T23:06:48.331Z,13.20
2018-04-24T23:09:15.783Z,12.80
2018-04-24T23:11:55.487Z,13.70
2018-04-24T23:14:35.093Z,13.50
2018-04-24T23:17:14.331Z,12.83
2018-04-24T23:19:55.074Z,12.70
2018-04-24T23:22:32.163Z,14.47
2018-04-24T23:24:59.648Z,13.50
2018-04-24T23:27:27.855Z,12.93
2018-04-24T23:29:55.349Z,12.60
2018-04-24T23:32:22.814Z,12.57
2018-04-24T23:34:51.012Z,12.67
2018-04-24T23:37:19.765Z,11.97
2018-04-24T23:39:47.215Z,12.47
2018-04-24T23:42:15.212Z,12.13
2018-04-24T23:44:42.655Z,12.47
2018-04-24T23:47:10.152Z,12.50
2018-04-24T23:49:39.807Z,11.87
2018-04-24T23:52:07.283Z,11.40
2018-04-24T23:54:35.187Z,11.83
2018-04-24T23:57:02.659Z,12.03
2018-04-24T23:59:30.196Z,12.27
